createdAt,value
2022-11-17T00:00:12.152Z,10.90
2022-11-17T00:02:38.792Z,10.92
2022-11-17T00:05:05.742Z,10.88
2022-11-17T00:07:32.414Z,10.94
2022-11-17T00:09:59.010Z,10.91
2022-11-17T00:12:44.054Z,10.93
2022-11-17T00:15:10.600Z,10.90
2022-11-17T00:17:37.182Z,10.90
2022-11-17T00:20:22.996Z,10.89
2022-11-17T00:22:49.566Z,10.89
2022-11-17T00:25:16.183Z,10.90
2022-11-17T00:27:42.734Z,10.91
2022-11-17T00:30:09.612Z,10.93
2022-11-17T00:32:54.658Z,10.90
2022-11-17T00:35:21.200Z,10.89
2022-11-17T00:38:20.105Z,10.85
2022-11-17T00:40:46.801Z,10.86
2022-11-17T00:43:13.352Z,10.84
2022-11-17T00:45:39.927Z,10.87
2022-11-17T00:48:06.736Z,10.94
2022-11-17T00:50:33.322Z,10.89
2022-11-17T00:52:59.962Z,10.89
2022-11-17T00:55:26.576Z,10.90
2022-11-17T00:57:53.239Z,10.84
2022-11-17T01:00:21.306Z,10.89
2022-11-17T01:02:47.881Z,10.84
2022-11-17T01:05:14.561Z,10.79
2022-11-17T01:07:41.125Z,10.84
2022-11-17T01:10:08.189Z,10.85
2022-11-17T01:12:34.817Z,10.83
2022-11-17T01:15:01.405Z,10.81
2022-11-17T01:17:27.981Z,10.86
2022-11-17T01:19:54.682Z,10.85
2022-11-17T01:22:21.265Z,10.84
2022-11-17T01:24:47.831Z,10.80
2022-11-17T01:27:14.414Z,10.76
2022-11-17T01:29:40.972Z,10.76
2022-11-17T01:32:07.527Z,10.73
2022-11-17T01:34:34.077Z,10.72
2022-11-17T01:37:19.005Z,10.69
2022-11-17T01:39:45.921Z,10.69
2022-11-17T01:42:21.718Z,10.69
2022-11-17T01:45:18.446Z,10.64
2022-11-17T01:47:59.614Z,10.54
2022-11-17T01:50:43.454Z,10.56
2022-11-17T01:53:19.008Z,10.47
2022-11-17T01:55:56.218Z,10.43
2022-11-17T01:58:33.679Z,10.44
2022-11-17T02:01:00.408Z,10.47
2022-11-17T02:03:27.992Z,10.46
2022-11-17T02:06:01.976Z,10.38
2022-11-17T02:08:32.187Z,10.36
2022-11-17T02:11:02.578Z,10.32
2022-11-17T02:13:29.417Z,10.30
2022-11-17T02:15:56.001Z,10.23
2022-11-17T02:18:22.612Z,10.18
2022-11-17T02:21:13.913Z,10.22
2022-11-17T02:23:59.150Z,10.19
2022-11-17T02:26:37.761Z,10.18
2022-11-17T02:29:17.941Z,10.14
2022-11-17T02:31:50.190Z,10.10
2022-11-17T02:34:22.778Z,10.02
2022-11-17T02:37:11.067Z,10.02
2022-11-17T02:39:50.523Z,10.07
2022-11-17T02:42:49.654Z,10.09
2022-11-17T02:45:25.415Z,10.03
2022-11-17T02:47:54.806Z,10.00
2022-11-17T02:50:28.526Z,10.07
2022-11-17T02:52:56.053Z,10.07
2022-11-17T02:55:22.656Z,10.02
2022-11-17T02:57:49.851Z,10.00
2022-11-17T03:00:20.586Z,9.98
2022-11-17T03:02:56.026Z,9.97
2022-11-17T03:05:26.857Z,10.02
2022-11-17T03:08:22.552Z,10.02
2022-11-17T03:10:59.877Z,9.98
2022-11-17T03:13:45.060Z,9.94
2022-11-17T03:16:34.761Z,9.95
2022-11-17T03:19:22.752Z,9.94
2022-11-17T03:22:15.654Z,10.02
2022-11-17T03:24:47.538Z,9.98
2022-11-17T03:27:23.198Z,9.99
2022-11-17T03:29:53.781Z,10.10
2022-11-17T03:32:23.455Z,10.09
2022-11-17T03:34:56.406Z,10.11
2022-11-17T03:37:26.803Z,10.13
2022-11-17T03:39:58.463Z,10.09
2022-11-17T03:42:29.527Z,10.14
2022-11-17T03:45:03.215Z,10.16
2022-11-17T03:47:32.659Z,10.14
2022-11-17T03:50:13.165Z,10.11
2022-11-17T03:52:41.414Z,10.08
2022-11-17T03:55:09.132Z,10.06
2022-11-17T03:57:47.943Z,10.05
2022-11-17T04:00:16.975Z,10.00
2022-11-17T04:02:45.565Z,9.90
2022-11-17T04:05:14.236Z,9.85
2022-11-17T04:07:45.599Z,9.80
2022-11-17T04:10:15.703Z,9.84
2022-11-17T04:13:01.176Z,9.74
2022-11-17T04:15:46.677Z,9.80
2022-11-17T04:18:14.152Z,9.72
2022-11-17T04:20:41.002Z,9.64
2022-11-17T04:23:15.094Z,9.71
2022-11-17T04:26:06.183Z,9.73
2022-11-17T04:28:37.317Z,9.76
2022-11-17T04:31:13.040Z,9.75
2022-11-17T04:33:42.058Z,9.73
2022-11-17T04:36:10.053Z,9.75
2022-11-17T04:38:37.060Z,9.76
2022-11-17T04:41:25.725Z,9.78
2022-11-17T04:43:52.872Z,9.78
2022-11-17T04:46:20.591Z,9.78
2022-11-17T04:48:47.865Z,9.83
2022-11-17T04:51:16.080Z,9.84
2022-11-17T04:53:43.736Z,9.84
2022-11-17T04:56:11.131Z,9.83
2022-11-17T04:58:37.753Z,9.86
2022-11-17T05:01:13.453Z,9.95
2022-11-17T05:03:50.273Z,9.95
2022-11-17T05:06:23.021Z,9.97
2022-11-17T05:08:50.742Z,10.06
2022-11-17T05:11:36.524Z,10.08
2022-11-17T05:14:03.526Z,10.08
2022-11-17T05:16:49.033Z,10.06
2022-11-17T05:19:20.278Z,10.12
2022-11-17T05:21:47.083Z,10.04
2022-11-17T05:24:14.944Z,10.17
2022-11-17T05:26:42.980Z,10.18
2022-11-17T05:29:10.698Z,10.21
2022-11-17T05:31:37.686Z,10.23
2022-11-17T05:34:06.153Z,10.29
2022-11-17T05:36:33.255Z,10.33
2022-11-17T05:39:00.452Z,10.37
2022-11-17T05:41:29.279Z,10.45
2022-11-17T05:43:56.746Z,10.52
2022-11-17T05:46:24.369Z,10.54
2022-11-17T05:48:51.734Z,10.60
2022-11-17T05:51:20.632Z,10.65
2022-11-17T05:53:48.064Z,10.75
2022-11-17T05:56:36.260Z,10.79
2022-11-17T05:59:07.936Z,10.83
2022-11-17T06:01:40.912Z,10.88
2022-11-17T06:04:08.552Z,10.93
2022-11-17T06:06:36.756Z,10.97
2022-11-17T06:09:04.128Z,11.02
2022-11-17T06:11:30.787Z,11.12
2022-11-17T06:13:57.368Z,11.20
2022-11-17T06:16:26.169Z,11.18
2022-11-17T06:19:01.198Z,11.18
2022-11-17T06:21:43.202Z,11.32
2022-11-17T06:24:14.932Z,11.34
2022-11-17T06:26:42.224Z,11.30
2022-11-17T06:29:10.843Z,11.37
2022-11-17T06:31:38.750Z,11.40
2022-11-17T06:34:05.888Z,11.39
2022-11-17T06:36:32.602Z,11.41
2022-11-17T06:38:59.205Z,11.41
2022-11-17T06:41:25.805Z,11.40
2022-11-17T06:43:52.439Z,11.33
2022-11-17T06:46:19.265Z,11.36
2022-11-17T06:48:45.911Z,11.39
2022-11-17T06:51:12.558Z,11.46
2022-11-17T06:53:39.172Z,11.48
2022-11-17T06:56:06.175Z,11.46
2022-11-17T06:58:33.662Z,11.51
2022-11-17T07:01:12.392Z,11.62
2022-11-17T07:03:40.617Z,11.69
2022-11-17T07:06:09.715Z,11.71
2022-11-17T07:08:37.995Z,11.83
2022-11-17T07:11:10.916Z,11.88
2022-11-17T07:13:38.366Z,11.97
2022-11-17T07:16:05.168Z,12.03
2022-11-17T07:18:32.311Z,12.11
2022-11-17T07:21:07.099Z,12.12
2022-11-17T07:23:34.885Z,12.24
2022-11-17T07:26:02.402Z,12.34
2022-11-17T07:28:29.819Z,12.43
2022-11-17T07:30:56.888Z,12.43
2022-11-17T07:33:23.519Z,12.44
2022-11-17T07:35:50.712Z,12.46
2022-11-17T07:38:17.373Z,12.46
2022-11-17T07:40:44.025Z,12.48
2022-11-17T07:43:10.616Z,12.47
2022-11-17T07:45:37.316Z,12.39
2022-11-17T07:48:06.097Z,12.44
2022-11-17T07:50:34.083Z,12.46
2022-11-17T07:53:00.887Z,12.44
2022-11-17T07:55:27.772Z,12.46
2022-11-17T07:57:59.262Z,12.43
2022-11-17T08:00:28.192Z,12.45
2022-11-17T08:02:55.045Z,12.43
2022-11-17T08:05:22.025Z,12.41
2022-11-17T08:07:55.788Z,12.48
2022-11-17T08:10:22.750Z,12.56
2022-11-17T08:12:53.835Z,12.58
2022-11-17T08:15:21.332Z,12.59
2022-11-17T08:17:53.435Z,12.68
2022-11-17T08:20:20.381Z,12.74
2022-11-17T08:22:46.983Z,12.79
2022-11-17T08:25:14.200Z,12.68
2022-11-17T08:27:41.795Z,12.62
2022-11-17T08:30:09.609Z,12.46
2022-11-17T08:32:36.893Z,12.38
2022-11-17T08:35:05.801Z,12.35
2022-11-17T08:37:32.906Z,12.32
2022-11-17T08:39:59.527Z,12.43
2022-11-17T08:42:26.161Z,12.38
2022-11-17T08:44:52.744Z,12.49
2022-11-17T08:47:19.370Z,12.50
2022-11-17T08:49:45.953Z,12.49
2022-11-17T08:52:12.583Z,12.51
2022-11-17T08:54:39.171Z,12.51
2022-11-17T08:57:05.798Z,12.60
2022-11-17T08:59:32.472Z,12.59
2022-11-17T09:01:59.043Z,12.53
2022-11-17T09:04:25.628Z,12.51
2022-11-17T09:06:52.247Z,12.54
2022-11-17T09:09:19.002Z,12.60
2022-11-17T09:11:45.624Z,12.62
2022-11-17T09:14:12.257Z,12.69
2022-11-17T09:16:38.935Z,12.65
2022-11-17T09:19:05.583Z,12.61
2022-11-17T09:21:33.824Z,12.66
2022-11-17T09:24:00.384Z,12.60
2022-11-17T09:26:27.089Z,12.54
2022-11-17T09:28:53.737Z,12.51
2022-11-17T09:31:22.284Z,12.52
2022-11-17T09:33:49.101Z,12.52
2022-11-17T09:36:17.035Z,12.54
2022-11-17T09:38:44.607Z,12.63
2022-11-17T09:41:32.591Z,12.62
2022-11-17T09:44:21.575Z,12.67
2022-11-17T09:47:21.841Z,12.58
2022-11-17T09:50:04.359Z,12.43
2022-11-17T09:52:54.278Z,12.45
2022-11-17T09:55:34.320Z,12.46
2022-11-17T09:58:11.571Z,12.30
2022-11-17T10:00:41.664Z,12.36
2022-11-17T10:03:20.122Z,12.49
2022-11-17T10:05:47.119Z,12.51
2022-11-17T10:08:19.736Z,12.58
2022-11-17T10:10:51.361Z,12.59
2022-11-17T10:13:25.846Z,12.58
2022-11-17T10:15:57.785Z,12.57
2022-11-17T10:18:24.509Z,12.63
2022-11-17T10:20:51.340Z,12.69
2022-11-17T10:23:20.310Z,12.74
2022-11-17T10:25:57.969Z,12.75
2022-11-17T10:28:30.950Z,12.73
2022-11-17T10:31:04.655Z,12.84
2022-11-17T10:33:37.849Z,12.88
2022-11-17T10:36:17.760Z,12.95
2022-11-17T10:38:47.967Z,12.92
2022-11-17T10:41:25.738Z,12.87
2022-11-17T10:43:56.325Z,12.94
2022-11-17T10:46:24.097Z,12.97
2022-11-17T10:49:05.139Z,12.97
2022-11-17T10:51:33.784Z,12.99
2022-11-17T10:54:06.743Z,12.95
2022-11-17T10:56:44.078Z,13.01
2022-11-17T10:59:18.752Z,13.13
2022-11-17T11:01:49.855Z,13.41
2022-11-17T11:04:42.088Z,13.81
2022-11-17T11:07:13.162Z,13.93
2022-11-17T11:09:55.029Z,13.73
2022-11-17T11:12:34.378Z,13.92
2022-11-17T11:15:02.631Z,14.61
2022-11-17T11:17:29.977Z,17.16
2022-11-17T11:19:57.993Z,20.26
2022-11-17T11:22:38.076Z,22.58
2022-11-17T11:25:16.486Z,19.53
2022-11-17T11:28:00.484Z,19.02
2022-11-17T11:30:27.541Z,19.62
2022-11-17T11:33:02.971Z,19.74
2022-11-17T11:35:41.479Z,18.83
2022-11-17T11:38:34.870Z,18.39
2022-11-17T11:41:04.615Z,17.57
2022-11-17T11:43:31.127Z,16.81
2022-11-17T11:46:17.435Z,18.73
2022-11-17T11:48:45.769Z,20.86
2022-11-17T11:51:28.893Z,22.78
2022-11-17T11:54:13.872Z,23.21
2022-11-17T11:56:44.368Z,20.56
2022-11-17T11:59:20.547Z,18.52
2022-11-17T12:02:18.161Z,17.25
2022-11-17T12:05:03.528Z,16.89
2022-11-17T12:07:51.055Z,16.81
2022-11-17T12:10:44.543Z,17.14
2022-11-17T12:13:17.413Z,17.19
2022-11-17T12:15:44.043Z,17.29
2022-11-17T12:18:16.682Z,16.83
2022-11-17T12:20:54.013Z,16.10
2022-11-17T12:23:38.922Z,15.48
2022-11-17T12:26:05.818Z,14.96
2022-11-17T12:28:39.827Z,14.87
2022-11-17T12:31:42.199Z,14.80
2022-11-17T12:34:18.685Z,14.97
2022-11-17T12:37:14.853Z,15.00
2022-11-17T12:39:59.603Z,16.09
2022-11-17T12:42:28.056Z,17.34
2022-11-17T12:45:12.564Z,17.69
2022-11-17T12:47:42.151Z,17.75
2022-11-17T12:50:17.569Z,17.87
2022-11-17T12:52:54.911Z,16.98
2022-11-17T12:55:44.993Z,16.24
2022-11-17T12:58:33.595Z,15.85
2022-11-17T13:01:15.170Z,15.92
2022-11-17T13:03:55.780Z,17.67
2022-11-17T13:06:37.722Z,18.48
2022-11-17T13:09:12.138Z,17.88
2022-11-17T13:11:38.849Z,17.76
2022-11-17T13:14:10.467Z,17.46
2022-11-17T13:16:45.109Z,16.64
2022-11-17T13:19:44.551Z,15.90
2022-11-17T13:22:11.072Z,15.62
2022-11-17T13:24:39.540Z,15.14
2022-11-17T13:27:21.460Z,14.77
2022-11-17T13:29:48.692Z,14.23
2022-11-17T13:32:18.578Z,13.96
2022-11-17T13:34:56.745Z,13.93
2022-11-17T13:37:28.531Z,13.93
2022-11-17T13:40:03.395Z,13.80
2022-11-17T13:42:32.591Z,13.71
2022-11-17T13:45:02.898Z,13.73
2022-11-17T13:47:38.266Z,13.64
2022-11-17T13:50:31.634Z,13.67
2022-11-17T13:53:05.284Z,13.75
2022-11-17T13:55:33.646Z,13.78
2022-11-17T13:58:07.966Z,13.82
2022-11-17T14:00:34.727Z,13.77
2022-11-17T14:03:04.806Z,13.69
2022-11-17T14:05:33.004Z,13.69
2022-11-17T14:08:13.338Z,13.60
2022-11-17T14:10:40.180Z,13.60
2022-11-17T14:13:06.732Z,13.52
2022-11-17T14:15:39.570Z,13.40
2022-11-17T14:18:18.620Z,13.32
2022-11-17T14:20:45.390Z,13.31
2022-11-17T14:23:11.939Z,13.36
2022-11-17T14:25:40.739Z,13.31
2022-11-17T14:28:21.495Z,13.23
2022-11-17T14:30:54.093Z,13.28
2022-11-17T14:33:21.179Z,13.27
2022-11-17T14:35:52.863Z,13.20
2022-11-17T14:38:21.527Z,13.24
2022-11-17T14:40:51.599Z,13.23
2022-11-17T14:43:19.519Z,13.17
2022-11-17T14:45:46.284Z,13.10
2022-11-17T14:48:17.736Z,12.97
2022-11-17T14:50:46.136Z,13.01
2022-11-17T14:53:12.753Z,12.98
2022-11-17T14:55:39.395Z,12.98
2022-11-17T14:58:06.018Z,12.94
2022-11-17T15:00:32.752Z,12.77
2022-11-17T15:02:59.347Z,12.82
2022-11-17T15:05:26.025Z,12.79
2022-11-17T15:07:52.700Z,12.86
2022-11-17T15:10:19.416Z,12.82
2022-11-17T15:12:46.030Z,12.79
2022-11-17T15:15:12.787Z,12.79
2022-11-17T15:17:39.605Z,12.83
2022-11-17T15:20:07.120Z,12.79
2022-11-17T15:22:33.751Z,12.76
2022-11-17T15:25:00.444Z,12.80
2022-11-17T15:27:27.209Z,12.85
2022-11-17T15:29:54.042Z,12.71
2022-11-17T15:32:20.683Z,12.67
2022-11-17T15:34:47.270Z,12.72
2022-11-17T15:37:13.890Z,12.71
2022-11-17T15:39:40.466Z,12.70
2022-11-17T15:42:07.109Z,12.73
2022-11-17T15:44:33.761Z,12.71
2022-11-17T15:47:00.460Z,12.63
2022-11-17T15:49:27.032Z,12.64
2022-11-17T15:51:53.612Z,12.49
2022-11-17T15:54:21.140Z,12.48
2022-11-17T15:56:48.416Z,12.51
2022-11-17T15:59:15.407Z,12.66
2022-11-17T16:01:42.382Z,12.70
2022-11-17T16:04:11.503Z,12.67
2022-11-17T16:06:43.160Z,12.53
2022-11-17T16:09:10.651Z,12.49
2022-11-17T16:11:37.619Z,12.48
2022-11-17T16:14:05.284Z,12.52
2022-11-17T16:16:35.647Z,12.54
2022-11-17T16:19:02.662Z,12.55
2022-11-17T16:21:29.335Z,12.54
2022-11-17T16:23:57.804Z,12.51
2022-11-17T16:26:26.508Z,12.54
2022-11-17T16:29:01.248Z,12.53
2022-11-17T16:31:29.716Z,12.52
2022-11-17T16:34:08.025Z,12.52
2022-11-17T16:36:37.617Z,12.48
2022-11-17T16:39:06.651Z,12.30
2022-11-17T16:41:35.730Z,12.28
2022-11-17T16:44:06.820Z,12.19
2022-11-17T16:46:33.499Z,12.01
2022-11-17T16:49:07.308Z,11.88
2022-11-17T16:51:34.146Z,11.88
2022-11-17T16:54:12.506Z,11.81
2022-11-17T16:56:39.269Z,11.79
2022-11-17T16:59:06.043Z,11.66
2022-11-17T17:01:35.434Z,11.65
2022-11-17T17:04:04.956Z,11.67
2022-11-17T17:06:31.624Z,11.69
2022-11-17T17:09:01.049Z,11.75
2022-11-17T17:11:29.310Z,11.70
2022-11-17T17:14:00.144Z,11.70
2022-11-17T17:16:27.207Z,11.51
2022-11-17T17:18:59.634Z,11.51
2022-11-17T17:21:27.429Z,11.41
2022-11-17T17:23:54.704Z,11.36
2022-11-17T17:26:23.130Z,11.24
2022-11-17T17:28:51.664Z,11.28
2022-11-17T17:31:21.920Z,11.30
2022-11-17T17:33:50.774Z,11.26
2022-11-17T17:36:22.637Z,11.17
2022-11-17T17:38:55.360Z,11.17
2022-11-17T17:41:27.071Z,11.14
2022-11-17T17:43:56.673Z,11.12
2022-11-17T17:46:24.101Z,11.09
2022-11-17T17:48:51.010Z,11.06
2022-11-17T17:51:20.160Z,10.98
2022-11-17T17:53:50.253Z,11.03
2022-11-17T17:56:19.158Z,10.96
2022-11-17T17:58:48.604Z,10.97
2022-11-17T18:01:15.227Z,10.87
2022-11-17T18:03:43.582Z,10.85
2022-11-17T18:06:10.475Z,10.78
2022-11-17T18:08:37.286Z,10.79
2022-11-17T18:11:07.236Z,10.82
2022-11-17T18:13:36.062Z,10.84
2022-11-17T18:16:04.849Z,10.80
2022-11-17T18:18:31.463Z,10.77
2022-11-17T18:21:00.545Z,10.70
2022-11-17T18:23:31.241Z,10.72
2022-11-17T18:25:58.332Z,10.67
2022-11-17T18:28:25.455Z,10.71
2022-11-17T18:30:52.154Z,10.75
2022-11-17T18:33:19.185Z,10.71
2022-11-17T18:35:45.798Z,10.71
2022-11-17T18:38:12.450Z,10.69
2022-11-17T18:40:39.118Z,10.71
2022-11-17T18:43:05.700Z,10.74
2022-11-17T18:45:36.567Z,10.79
2022-11-17T18:48:03.215Z,10.86
2022-11-17T18:50:29.806Z,10.82
2022-11-17T18:52:57.370Z,10.88
2022-11-17T18:55:24.116Z,10.86
2022-11-17T18:57:50.730Z,10.93
2022-11-17T19:00:17.835Z,10.89
2022-11-17T19:02:44.438Z,10.84
2022-11-17T19:05:10.986Z,10.80
2022-11-17T19:07:37.609Z,10.73
2022-11-17T19:10:04.440Z,10.71
2022-11-17T19:12:31.031Z,10.80
2022-11-17T19:14:57.718Z,10.71
2022-11-17T19:17:24.505Z,10.69
2022-11-17T19:19:51.090Z,10.69
2022-11-17T19:22:17.730Z,10.68
2022-11-17T19:24:44.317Z,10.66
2022-11-17T19:27:10.954Z,10.68
2022-11-17T19:29:38.822Z,10.75
2022-11-17T19:32:05.722Z,10.72
2022-11-17T19:34:32.344Z,10.71
2022-11-17T19:36:58.914Z,10.74
2022-11-17T19:39:25.540Z,10.73
2022-11-17T19:41:52.922Z,10.73
2022-11-17T19:44:19.716Z,10.76
2022-11-17T19:46:46.446Z,10.78
2022-11-17T19:49:13.099Z,10.82
2022-11-17T19:51:41.194Z,10.75
2022-11-17T19:54:09.529Z,10.74
2022-11-17T19:56:36.872Z,10.77
2022-11-17T19:59:03.797Z,10.73
2022-11-17T20:01:31.575Z,10.75
2022-11-17T20:04:00.358Z,10.70
2022-11-17T20:06:30.484Z,10.71
2022-11-17T20:08:57.625Z,10.67
2022-11-17T20:11:28.483Z,10.71
2022-11-17T20:13:55.599Z,10.66
2022-11-17T20:16:24.730Z,10.64
2022-11-17T20:18:54.347Z,10.64
2022-11-17T20:21:21.699Z,10.68
2022-11-17T20:23:49.043Z,10.69
2022-11-17T20:26:18.105Z,10.74
2022-11-17T20:28:44.930Z,10.81
2022-11-17T20:31:11.424Z,10.75
2022-11-17T20:33:39.614Z,10.80
2022-11-17T20:36:07.996Z,10.76
2022-11-17T20:38:36.062Z,10.76
2022-11-17T20:41:03.837Z,10.78
2022-11-17T20:43:31.512Z,10.84
2022-11-17T20:45:58.556Z,10.79
2022-11-17T20:48:26.291Z,10.75
2022-11-17T20:51:00.605Z,10.82
2022-11-17T20:53:28.334Z,10.85
2022-11-17T20:55:56.769Z,10.85
2022-11-17T20:58:24.587Z,10.88
2022-11-17T21:00:51.529Z,10.86
2022-11-17T21:03:18.405Z,10.91
2022-11-17T21:05:58.472Z,10.96
2022-11-17T21:08:33.386Z,10.92
2022-11-17T21:11:02.274Z,10.84
2022-11-17T21:13:30.573Z,10.87
2022-11-17T21:16:13.496Z,10.79
2022-11-17T21:18:46.246Z,10.76
2022-11-17T21:21:13.857Z,10.77
2022-11-17T21:23:41.493Z,10.75
2022-11-17T21:26:09.724Z,10.68
2022-11-17T21:28:37.448Z,10.73
2022-11-17T21:31:09.984Z,10.66
2022-11-17T21:33:37.624Z,10.69
2022-11-17T21:36:15.652Z,10.66
2022-11-17T21:38:43.570Z,10.63
2022-11-17T21:41:12.840Z,10.70
2022-11-17T21:43:40.878Z,10.72
2022-11-17T21:46:19.243Z,10.73
2022-11-17T21:48:46.737Z,10.76
2022-11-17T21:51:25.073Z,10.80
2022-11-17T21:53:56.115Z,10.87
2022-11-17T21:56:26.469Z,10.88
2022-11-17T21:58:57.952Z,10.91
2022-11-17T22:01:25.127Z,10.86
2022-11-17T22:03:51.852Z,10.86
2022-11-17T22:06:21.686Z,10.88
2022-11-17T22:08:49.101Z,10.87
2022-11-17T22:11:35.243Z,10.86
2022-11-17T22:14:05.967Z,10.88
2022-11-17T22:16:33.408Z,10.94
2022-11-17T22:19:00.059Z,10.91
2022-11-17T22:21:26.608Z,10.91
2022-11-17T22:23:53.388Z,10.91
2022-11-17T22:26:19.979Z,10.85
2022-11-17T22:28:51.134Z,10.84
2022-11-17T22:31:17.986Z,10.80
2022-11-17T22:33:48.347Z,10.65
2022-11-17T22:36:15.600Z,10.65
2022-11-17T22:38:43.396Z,10.65
2022-11-17T22:41:11.743Z,10.62
2022-11-17T22:43:38.337Z,10.62
2022-11-17T22:46:07.987Z,10.55
2022-11-17T22:48:38.316Z,10.57
2022-11-17T22:51:05.714Z,10.53
2022-11-17T22:53:33.386Z,10.58
2022-11-17T22:56:04.694Z,10.54
2022-11-17T22:58:31.941Z,10.46
2022-11-17T23:01:06.667Z,10.50
2022-11-17T23:03:33.455Z,10.47
2022-11-17T23:06:04.751Z,10.46
2022-11-17T23:08:33.444Z,10.57
2022-11-17T23:11:29.666Z,10.51
2022-11-17T23:13:48.588Z,10.50
2022-11-17T23:16:15.851Z,10.49
2022-11-17T23:18:42.448Z,10.51
2022-11-17T23:21:10.426Z,10.53
2022-11-17T23:23:39.304Z,10.54
2022-11-17T23:26:11.461Z,10.50
2022-11-17T23:28:40.092Z,10.49
2022-11-17T23:31:10.743Z,10.50
2022-11-17T23:33:40.321Z,10.53
2022-11-17T23:36:12.171Z,10.55
2022-11-17T23:38:38.811Z,10.53
2022-11-17T23:41:07.572Z,10.54
2022-11-17T23:43:34.363Z,10.57
2022-11-17T23:46:10.515Z,10.56
2022-11-17T23:48:37.630Z,10.54
2022-11-17T23:51:09.243Z,10.62
2022-11-17T23:53:36.066Z,10.57
2022-11-17T23:56:03.104Z,10.58
2022-11-17T23:58:30.033Z,10.51
